MMMY

General Mariano Escobedo International Airport

Monterrey, Mexico
TAF MMMY 170451Z 1706/1812 00000KT P6SM SKC TX20/1721Z TN03/1712Z FM171100 20005KT 6SM HZ SCT020 FM171800 14010KT P6SM SCT220 BECMG 1805/1807 14005KT SKC
Issued Valid From Valid To
Nov-17 @ 04:51 UTC
(4 hours ago)
Nov-17 @ 06:00 UTC
(3 hours ago)
Nov-18 @ 12:00 UTC
(-1 days ago)
Nov-17 @ 06:00 to Nov-17 @ 11:00
TAF MMMY 170451Z 1706/1812 00000KT P6SM SKC TX20/1721Z TN03/1712Z
Visibility Clouds
Greater than 6 miles
  • Clear skies
From Nov-17 @ 11:00 to Nov-17 @ 18:00
FM171100 20005KT 6SM HZ SCT020
Wind Visibility Clouds Conditions
200° at 5 knots 6 miles
  • Scattered at 2,000' AGL
  • Haze
From Nov-17 @ 18:00 to Nov-18 @ 05:00
FM171800 14010KT P6SM SCT220
Wind Visibility Clouds
140° at 10 knots Greater than 6 miles
  • Scattered at 22,000' AGL
Becoming Nov-18 @ 05:00 to Nov-18 @ 12:00
BECMG 1805/1807 14005KT SKC
Wind Visibility Clouds
140° at 5 knots Greater than 6 miles
  • Clear skies
TAF MMMY 170451Z 1706/1812 00000KT P6SM SKC TX20/1721Z TN03/1712Z FM171100 20005KT 6SM HZ SCT020 FM171800 14010KT P6SM SCT220 BECMG 1805/1807 14005KT SKC
Issued Nov-17 @ 04:51 UTC
(4 hours ago)
Valid From Nov-17 @ 06:00 UTC
(3 hours ago)
Valid To Nov-18 @ 12:00 UTC
(-1 days ago)
Nov-17 @ 06:00 - Nov-17 @ 11:00
Clouds
  • Clear skies
From Nov-17 @ 11:00 - Nov-17 @ 18:00
Wind Visibility
200° at 5 knots 6 miles
Clouds
  • Scattered at 2,000' AGL
Conditions
  • Haze
From Nov-17 @ 18:00 - Nov-18 @ 05:00
Wind Visibility
140° at 10 knots Greater than 6 miles
Clouds
  • Scattered at 22,000' AGL
Becoming Nov-18 @ 05:00 - Nov-18 @ 12:00
Wind Visibility
140° at 5 knots Greater than 6 miles
Clouds
  • Clear skies